sensor_id;sensor_type;location;lat;lon;timestamp;P1;durP1;ratioP1;P2;durP2;ratioP2
25972;SDS011;13765;51.166;4.466;2022-08-19T00:01:42;25.90;;;11.48;;
25972;SDS011;13765;51.166;4.466;2022-08-19T00:04:12;35.00;;;13.45;;
25972;SDS011;13765;51.166;4.466;2022-08-19T00:06:42;34.47;;;13.23;;
25972;SDS011;13765;51.166;4.466;2022-08-19T00:09:12;30.77;;;14.35;;
25972;SDS011;13765;51.166;4.466;2022-08-19T00:11:44;34.80;;;14.05;;
25972;SDS011;13765;51.166;4.466;2022-08-19T00:14:11;34.38;;;14.80;;
25972;SDS011;13765;51.166;4.466;2022-08-19T00:16:39;29.83;;;14.55;;
25972;SDS011;13765;51.166;4.466;2022-08-19T00:19:06;37.08;;;14.52;;
25972;SDS011;13765;51.166;4.466;2022-08-19T00:21:35;38.17;;;15.88;;
25972;SDS011;13765;51.166;4.466;2022-08-19T00:24:05;36.08;;;15.35;;
25972;SDS011;13765;51.166;4.466;2022-08-19T00:26:35;37.72;;;15.18;;
25972;SDS011;13765;51.166;4.466;2022-08-19T00:29:01;35.78;;;15.30;;
25972;SDS011;13765;51.166;4.466;2022-08-19T00:31:30;41.05;;;15.45;;
25972;SDS011;13765;51.166;4.466;2022-08-19T00:33:56;32.67;;;13.68;;
25972;SDS011;13765;51.166;4.466;2022-08-19T00:36:22;35.95;;;15.40;;
25972;SDS011;13765;51.166;4.466;2022-08-19T00:38:49;37.15;;;15.95;;
25972;SDS011;13765;51.166;4.466;2022-08-19T00:41:17;36.45;;;15.00;;
25972;SDS011;13765;51.166;4.466;2022-08-19T00:44:05;38.40;;;16.50;;
25972;SDS011;13765;51.166;4.466;2022-08-19T00:46:45;32.85;;;15.13;;
25972;SDS011;13765;51.166;4.466;2022-08-19T00:49:17;35.60;;;16.27;;
25972;SDS011;13765;51.166;4.466;2022-08-19T00:51:50;34.45;;;15.43;;
25972;SDS011;13765;51.166;4.466;2022-08-19T00:54:18;39.67;;;16.30;;
25972;SDS011;13765;51.166;4.466;2022-08-19T00:56:46;37.85;;;15.15;;
25972;SDS011;13765;51.166;4.466;2022-08-19T00:59:13;36.63;;;16.35;;
25972;SDS011;13765;51.166;4.466;2022-08-19T01:01:42;36.28;;;15.00;;
25972;SDS011;13765;51.166;4.466;2022-08-19T01:04:12;35.42;;;13.88;;
25972;SDS011;13765;51.166;4.466;2022-08-19T01:06:39;35.30;;;14.27;;
25972;SDS011;13765;51.166;4.466;2022-08-19T01:09:08;34.20;;;13.38;;
25972;SDS011;13765;51.166;4.466;2022-08-19T01:11:36;36.17;;;14.30;;
25972;SDS011;13765;51.166;4.466;2022-08-19T01:14:07;42.92;;;16.85;;
25972;SDS011;13765;51.166;4.466;2022-08-19T01:16:36;35.88;;;15.27;;
25972;SDS011;13765;51.166;4.466;2022-08-19T01:19:12;38.80;;;16.23;;
25972;SDS011;13765;51.166;4.466;2022-08-19T01:21:55;33.30;;;15.45;;
25972;SDS011;13765;51.166;4.466;2022-08-19T01:24:26;36.00;;;14.98;;
25972;SDS011;13765;51.166;4.466;2022-08-19T01:26:52;35.33;;;16.77;;
25972;SDS011;13765;51.166;4.466;2022-08-19T01:29:18;37.95;;;15.90;;
25972;SDS011;13765;51.166;4.466;2022-08-19T01:31:44;37.17;;;16.52;;
25972;SDS011;13765;51.166;4.466;2022-08-19T01:34:10;38.13;;;15.70;;
25972;SDS011;13765;51.166;4.466;2022-08-19T01:36:40;42.95;;;18.40;;
25972;SDS011;13765;51.166;4.466;2022-08-19T01:39:15;38.65;;;16.77;;
25972;SDS011;13765;51.166;4.466;2022-08-19T01:41:45;37.42;;;16.70;;
25972;SDS011;13765;51.166;4.466;2022-08-19T01:44:14;35.72;;;13.98;;
25972;SDS011;13765;51.166;4.466;2022-08-19T01:46:45;34.45;;;13.70;;
25972;SDS011;13765;51.166;4.466;2022-08-19T01:49:13;42.17;;;14.48;;
25972;SDS011;13765;51.166;4.466;2022-08-19T01:51:39;38.47;;;14.98;;
25972;SDS011;13765;51.166;4.466;2022-08-19T01:54:05;40.92;;;16.63;;
25972;SDS011;13765;51.166;4.466;2022-08-19T01:56:36;36.03;;;14.15;;
25972;SDS011;13765;51.166;4.466;2022-08-19T01:59:04;38.17;;;15.45;;
25972;SDS011;13765;51.166;4.466;2022-08-19T02:01:35;41.65;;;15.43;;
25972;SDS011;13765;51.166;4.466;2022-08-19T02:04:03;40.83;;;15.07;;
25972;SDS011;13765;51.166;4.466;2022-08-19T02:06:30;42.50;;;16.90;;
25972;SDS011;13765;51.166;4.466;2022-08-19T02:08:59;38.97;;;15.27;;
25972;SDS011;13765;51.166;4.466;2022-08-19T02:11:32;40.53;;;16.48;;
25972;SDS011;13765;51.166;4.466;2022-08-19T02:14:04;35.97;;;15.13;;
25972;SDS011;13765;51.166;4.466;2022-08-19T02:16:35;37.67;;;15.57;;
25972;SDS011;13765;51.166;4.466;2022-08-19T02:19:05;38.35;;;15.85;;
25972;SDS011;13765;51.166;4.466;2022-08-19T02:21:31;40.83;;;16.65;;
25972;SDS011;13765;51.166;4.466;2022-08-19T02:23:57;37.28;;;17.00;;
25972;SDS011;13765;51.166;4.466;2022-08-19T02:26:26;42.40;;;18.27;;
25972;SDS011;13765;51.166;4.466;2022-08-19T02:28:52;40.42;;;16.88;;
25972;SDS011;13765;51.166;4.466;2022-08-19T02:31:24;36.08;;;15.38;;
25972;SDS011;13765;51.166;4.466;2022-08-19T02:33:51;48.47;;;18.08;;
25972;SDS011;13765;51.166;4.466;2022-08-19T02:36:18;39.92;;;15.27;;
25972;SDS011;13765;51.166;4.466;2022-08-19T02:38:46;41.70;;;17.00;;
25972;SDS011;13765;51.166;4.466;2022-08-19T02:41:14;39.25;;;16.92;;
25972;SDS011;13765;51.166;4.466;2022-08-19T02:43:45;43.50;;;17.83;;
25972;SDS011;13765;51.166;4.466;2022-08-19T02:46:12;42.38;;;16.17;;
25972;SDS011;13765;51.166;4.466;2022-08-19T02:48:48;42.35;;;17.15;;
25972;SDS011;13765;51.166;4.466;2022-08-19T02:51:18;45.63;;;18.35;;
25972;SDS011;13765;51.166;4.466;2022-08-19T02:53:46;39.83;;;17.38;;
25972;SDS011;13765;51.166;4.466;2022-08-19T02:56:15;36.15;;;15.02;;
25972;SDS011;13765;51.166;4.466;2022-08-19T02:58:40;42.17;;;16.60;;
25972;SDS011;13765;51.166;4.466;2022-08-19T03:01:10;40.03;;;16.52;;
25972;SDS011;13765;51.166;4.466;2022-08-19T03:03:44;41.90;;;15.85;;
25972;SDS011;13765;51.166;4.466;2022-08-19T03:06:13;45.20;;;15.85;;
25972;SDS011;13765;51.166;4.466;2022-08-19T03:08:41;38.10;;;15.00;;
25972;SDS011;13765;51.166;4.466;2022-08-19T03:11:13;38.25;;;16.27;;
25972;SDS011;13765;51.166;4.466;2022-08-19T03:13:45;39.42;;;16.23;;
25972;SDS011;13765;51.166;4.466;2022-08-19T03:16:16;41.60;;;16.20;;
25972;SDS011;13765;51.166;4.466;2022-08-19T03:18:43;43.90;;;17.52;;
25972;SDS011;13765;51.166;4.466;2022-08-19T03:21:16;46.65;;;16.77;;
25972;SDS011;13765;51.166;4.466;2022-08-19T03:23:43;40.50;;;15.55;;
25972;SDS011;13765;51.166;4.466;2022-08-19T03:26:09;37.58;;;15.25;;
25972;SDS011;13765;51.166;4.466;2022-08-19T03:28:37;42.72;;;15.05;;
25972;SDS011;13765;51.166;4.466;2022-08-19T03:31:08;36.15;;;15.70;;
25972;SDS011;13765;51.166;4.466;2022-08-19T03:33:40;37.15;;;14.63;;
25972;SDS011;13765;51.166;4.466;2022-08-19T03:38:43;43.78;;;15.25;;
25972;SDS011;13765;51.166;4.466;2022-08-19T03:41:12;37.60;;;15.23;;
25972;SDS011;13765;51.166;4.466;2022-08-19T03:43:43;32.63;;;13.68;;
25972;SDS011;13765;51.166;4.466;2022-08-19T03:46:18;39.22;;;13.45;;
25972;SDS011;13765;51.166;4.466;2022-08-19T03:48:51;37.00;;;14.75;;
25972;SDS011;13765;51.166;4.466;2022-08-19T03:51:27;37.67;;;13.77;;
25972;SDS011;13765;51.166;4.466;2022-08-19T03:53:58;37.40;;;13.35;;
25972;SDS011;13765;51.166;4.466;2022-08-19T03:56:25;33.83;;;13.30;;
25972;SDS011;13765;51.166;4.466;2022-08-19T03:58:57;33.78;;;13.10;;
25972;SDS011;13765;51.166;4.466;2022-08-19T04:01:27;37.65;;;13.75;;
25972;SDS011;13765;51.166;4.466;2022-08-19T04:03:56;32.15;;;12.02;;
25972;SDS011;13765;51.166;4.466;2022-08-19T04:06:28;31.65;;;13.38;;
25972;SDS011;13765;51.166;4.466;2022-08-19T04:08:56;36.72;;;13.80;;
25972;SDS011;13765;51.166;4.466;2022-08-19T04:11:26;37.25;;;13.55;;
25972;SDS011;13765;51.166;4.466;2022-08-19T04:13:56;33.80;;;13.20;;
25972;SDS011;13765;51.166;4.466;2022-08-19T04:16:25;35.15;;;12.98;;
25972;SDS011;13765;51.166;4.466;2022-08-19T04:18:56;33.55;;;13.02;;
25972;SDS011;13765;51.166;4.466;2022-08-19T04:21:28;42.15;;;14.25;;
25972;SDS011;13765;51.166;4.466;2022-08-19T04:23:55;39.58;;;12.55;;
25972;SDS011;13765;51.166;4.466;2022-08-19T04:26:26;35.97;;;13.60;;
25972;SDS011;13765;51.166;4.466;2022-08-19T04:28:54;35.20;;;12.18;;
25972;SDS011;13765;51.166;4.466;2022-08-19T04:31:21;31.85;;;11.10;;
25972;SDS011;13765;51.166;4.466;2022-08-19T04:33:56;38.72;;;14.18;;
25972;SDS011;13765;51.166;4.466;2022-08-19T04:36:26;36.45;;;12.10;;
25972;SDS011;13765;51.166;4.466;2022-08-19T04:38:55;29.58;;;10.90;;
25972;SDS011;13765;51.166;4.466;2022-08-19T04:41:22;29.92;;;11.32;;
25972;SDS011;13765;51.166;4.466;2022-08-19T04:44:07;29.55;;;10.27;;
25972;SDS011;13765;51.166;4.466;2022-08-19T04:46:34;35.35;;;12.07;;
25972;SDS011;13765;51.166;4.466;2022-08-19T04:49:02;30.83;;;10.68;;
25972;SDS011;13765;51.166;4.466;2022-08-19T04:51:34;33.97;;;11.53;;
25972;SDS011;13765;51.166;4.466;2022-08-19T04:54:04;29.27;;;10.50;;
25972;SDS011;13765;51.166;4.466;2022-08-19T04:56:30;35.45;;;11.65;;
25972;SDS011;13765;51.166;4.466;2022-08-19T04:58:58;27.83;;;10.43;;
25972;SDS011;13765;51.166;4.466;2022-08-19T05:01:28;27.10;;;10.48;;
25972;SDS011;13765;51.166;4.466;2022-08-19T05:03:59;26.05;;;10.55;;
25972;SDS011;13765;51.166;4.466;2022-08-19T05:06:26;27.00;;;10.07;;
25972;SDS011;13765;51.166;4.466;2022-08-19T05:08:56;26.92;;;9.85;;
25972;SDS011;13765;51.166;4.466;2022-08-19T05:11:25;30.73;;;10.25;;
25972;SDS011;13765;51.166;4.466;2022-08-19T05:13:55;28.70;;;8.70;;
25972;SDS011;13765;51.166;4.466;2022-08-19T05:16:24;27.55;;;10.35;;
25972;SDS011;13765;51.166;4.466;2022-08-19T05:18:51;30.15;;;10.23;;
25972;SDS011;13765;51.166;4.466;2022-08-19T05:21:36;29.85;;;10.73;;
25972;SDS011;13765;51.166;4.466;2022-08-19T05:24:22;29.50;;;9.95;;
25972;SDS011;13765;51.166;4.466;2022-08-19T05:26:52;31.20;;;10.88;;
25972;SDS011;13765;51.166;4.466;2022-08-19T05:29:21;25.63;;;10.23;;
25972;SDS011;13765;51.166;4.466;2022-08-19T05:31:52;25.65;;;9.10;;
25972;SDS011;13765;51.166;4.466;2022-08-19T05:34:19;29.13;;;10.07;;
25972;SDS011;13765;51.166;4.466;2022-08-19T05:36:49;31.23;;;10.65;;
25972;SDS011;13765;51.166;4.466;2022-08-19T05:39:22;26.60;;;9.03;;
25972;SDS011;13765;51.166;4.466;2022-08-19T05:41:51;24.38;;;9.80;;
25972;SDS011;13765;51.166;4.466;2022-08-19T05:44:20;23.70;;;8.80;;
25972;SDS011;13765;51.166;4.466;2022-08-19T05:46:47;25.40;;;8.30;;
25972;SDS011;13765;51.166;4.466;2022-08-19T05:49:14;25.20;;;8.43;;
25972;SDS011;13765;51.166;4.466;2022-08-19T05:51:41;25.00;;;9.07;;
25972;SDS011;13765;51.166;4.466;2022-08-19T05:54:07;25.33;;;9.20;;
25972;SDS011;13765;51.166;4.466;2022-08-19T05:56:33;27.63;;;9.45;;
25972;SDS011;13765;51.166;4.466;2022-08-19T05:59:03;25.55;;;8.98;;
25972;SDS011;13765;51.166;4.466;2022-08-19T06:01:37;23.67;;;9.18;;
25972;SDS011;13765;51.166;4.466;2022-08-19T06:04:11;20.92;;;7.60;;
25972;SDS011;13765;51.166;4.466;2022-08-19T06:06:43;25.52;;;7.82;;
25972;SDS011;13765;51.166;4.466;2022-08-19T06:09:16;21.52;;;7.65;;
25972;SDS011;13765;51.166;4.466;2022-08-19T06:11:47;19.98;;;7.20;;
25972;SDS011;13765;51.166;4.466;2022-08-19T06:14:28;19.48;;;6.82;;
25972;SDS011;13765;51.166;4.466;2022-08-19T06:16:59;24.05;;;7.30;;
25972;SDS011;13765;51.166;4.466;2022-08-19T06:19:27;24.38;;;8.30;;
25972;SDS011;13765;51.166;4.466;2022-08-19T06:21:58;25.73;;;7.28;;
25972;SDS011;13765;51.166;4.466;2022-08-19T06:24:28;21.80;;;6.63;;
25972;SDS011;13765;51.166;4.466;2022-08-19T06:26:58;18.92;;;6.43;;
25972;SDS011;13765;51.166;4.466;2022-08-19T06:29:25;25.55;;;6.97;;
25972;SDS011;13765;51.166;4.466;2022-08-19T06:31:53;22.67;;;7.85;;
25972;SDS011;13765;51.166;4.466;2022-08-19T06:34:21;24.40;;;7.15;;
25972;SDS011;13765;51.166;4.466;2022-08-19T06:36:50;26.02;;;6.72;;
25972;SDS011;13765;51.166;4.466;2022-08-19T06:39:22;22.63;;;7.07;;
25972;SDS011;13765;51.166;4.466;2022-08-19T06:41:54;22.48;;;8.18;;
25972;SDS011;13765;51.166;4.466;2022-08-19T06:44:22;19.40;;;6.68;;
25972;SDS011;13765;51.166;4.466;2022-08-19T06:46:50;23.48;;;7.40;;
25972;SDS011;13765;51.166;4.466;2022-08-19T06:49:17;20.88;;;7.57;;
25972;SDS011;13765;51.166;4.466;2022-08-19T06:51:46;27.27;;;7.18;;
25972;SDS011;13765;51.166;4.466;2022-08-19T06:54:16;25.73;;;7.20;;
25972;SDS011;13765;51.166;4.466;2022-08-19T06:56:45;23.10;;;6.53;;
25972;SDS011;13765;51.166;4.466;2022-08-19T06:59:17;22.60;;;7.22;;
25972;SDS011;13765;51.166;4.466;2022-08-19T07:01:46;25.38;;;7.40;;
25972;SDS011;13765;51.166;4.466;2022-08-19T07:04:15;26.40;;;7.40;;
25972;SDS011;13765;51.166;4.466;2022-08-19T07:06:42;23.38;;;6.97;;
25972;SDS011;13765;51.166;4.466;2022-08-19T07:09:12;23.33;;;7.18;;
25972;SDS011;13765;51.166;4.466;2022-08-19T07:11:47;27.42;;;8.45;;
25972;SDS011;13765;51.166;4.466;2022-08-19T07:14:19;23.73;;;7.50;;
25972;SDS011;13765;51.166;4.466;2022-08-19T07:16:48;19.45;;;6.70;;
25972;SDS011;13765;51.166;4.466;2022-08-19T07:19:15;18.27;;;6.47;;
25972;SDS011;13765;51.166;4.466;2022-08-19T07:21:41;23.75;;;7.57;;
25972;SDS011;13765;51.166;4.466;2022-08-19T07:24:08;22.27;;;7.10;;
25972;SDS011;13765;51.166;4.466;2022-08-19T07:26:37;21.88;;;6.63;;
25972;SDS011;13765;51.166;4.466;2022-08-19T07:29:05;18.75;;;7.28;;
25972;SDS011;13765;51.166;4.466;2022-08-19T07:31:34;25.15;;;7.45;;
25972;SDS011;13765;51.166;4.466;2022-08-19T07:34:03;24.50;;;7.30;;
25972;SDS011;13765;51.166;4.466;2022-08-19T07:36:37;33.30;;;7.57;;
25972;SDS011;13765;51.166;4.466;2022-08-19T07:39:12;18.90;;;6.40;;
25972;SDS011;13765;51.166;4.466;2022-08-19T07:41:42;21.35;;;7.75;;
25972;SDS011;13765;51.166;4.466;2022-08-19T07:44:12;24.58;;;7.85;;
25972;SDS011;13765;51.166;4.466;2022-08-19T07:46:39;16.27;;;5.82;;
25972;SDS011;13765;51.166;4.466;2022-08-19T07:49:09;20.38;;;7.15;;
25972;SDS011;13765;51.166;4.466;2022-08-19T07:51:39;22.45;;;6.95;;
25972;SDS011;13765;51.166;4.466;2022-08-19T07:54:07;22.27;;;7.18;;
25972;SDS011;13765;51.166;4.466;2022-08-19T07:56:36;21.60;;;6.90;;
25972;SDS011;13765;51.166;4.466;2022-08-19T07:59:02;21.88;;;6.22;;
25972;SDS011;13765;51.166;4.466;2022-08-19T08:01:30;17.92;;;5.85;;
25972;SDS011;13765;51.166;4.466;2022-08-19T08:03:57;18.55;;;6.18;;
25972;SDS011;13765;51.166;4.466;2022-08-19T08:06:42;21.23;;;7.05;;
25972;SDS011;13765;51.166;4.466;2022-08-19T08:09:30;13.57;;;4.88;;
25972;SDS011;13765;51.166;4.466;2022-08-19T08:12:01;20.95;;;6.28;;
25972;SDS011;13765;51.166;4.466;2022-08-19T08:14:36;20.25;;;6.90;;
25972;SDS011;13765;51.166;4.466;2022-08-19T08:17:05;19.25;;;4.93;;
25972;SDS011;13765;51.166;4.466;2022-08-19T08:19:32;15.32;;;5.88;;
25972;SDS011;13765;51.166;4.466;2022-08-19T08:21:59;13.65;;;4.97;;
25972;SDS011;13765;51.166;4.466;2022-08-19T08:24:30;18.08;;;5.45;;
25972;SDS011;13765;51.166;4.466;2022-08-19T08:26:56;17.00;;;5.35;;
25972;SDS011;13765;51.166;4.466;2022-08-19T08:29:24;17.67;;;5.63;;
25972;SDS011;13765;51.166;4.466;2022-08-19T08:31:53;22.30;;;6.50;;
25972;SDS011;13765;51.166;4.466;2022-08-19T08:34:22;15.85;;;5.35;;
25972;SDS011;13765;51.166;4.466;2022-08-19T08:36:50;16.17;;;5.72;;
25972;SDS011;13765;51.166;4.466;2022-08-19T08:39:19;15.15;;;5.03;;
25972;SDS011;13765;51.166;4.466;2022-08-19T08:44:39;15.52;;;5.20;;
25972;SDS011;13765;51.166;4.466;2022-08-19T08:47:16;16.75;;;5.13;;
25972;SDS011;13765;51.166;4.466;2022-08-19T08:49:46;20.80;;;6.00;;
25972;SDS011;13765;51.166;4.466;2022-08-19T08:54:55;16.60;;;5.75;;
25972;SDS011;13765;51.166;4.466;2022-08-19T08:57:29;17.52;;;5.45;;
25972;SDS011;13765;51.166;4.466;2022-08-19T09:00:04;12.48;;;4.25;;
25972;SDS011;13765;51.166;4.466;2022-08-19T09:02:33;17.05;;;5.50;;
25972;SDS011;13765;51.166;4.466;2022-08-19T09:04:59;14.75;;;5.03;;
25972;SDS011;13765;51.166;4.466;2022-08-19T09:10:02;16.38;;;4.50;;
25972;SDS011;13765;51.166;4.466;2022-08-19T09:15:41;13.75;;;5.72;;
25972;SDS011;13765;51.166;4.466;2022-08-19T09:18:10;15.23;;;4.65;;
25972;SDS011;13765;51.166;4.466;2022-08-19T09:20:39;16.92;;;5.22;;
25972;SDS011;13765;51.166;4.466;2022-08-19T09:23:10;15.52;;;4.93;;
25972;SDS011;13765;51.166;4.466;2022-08-19T09:25:36;14.13;;;4.68;;
25972;SDS011;13765;51.166;4.466;2022-08-19T09:28:02;18.77;;;4.43;;
25972;SDS011;13765;51.166;4.466;2022-08-19T09:30:30;16.70;;;5.07;;
25972;SDS011;13765;51.166;4.466;2022-08-19T09:32:58;17.17;;;4.53;;
25972;SDS011;13765;51.166;4.466;2022-08-19T09:35:25;13.32;;;3.90;;
25972;SDS011;13765;51.166;4.466;2022-08-19T09:37:53;15.55;;;5.07;;
25972;SDS011;13765;51.166;4.466;2022-08-19T09:40:20;20.73;;;5.25;;
25972;SDS011;13765;51.166;4.466;2022-08-19T09:42:46;14.98;;;4.70;;
25972;SDS011;13765;51.166;4.466;2022-08-19T09:45:15;17.02;;;4.03;;
25972;SDS011;13765;51.166;4.466;2022-08-19T09:47:43;15.68;;;4.38;;
25972;SDS011;13765;51.166;4.466;2022-08-19T09:50:14;15.77;;;5.25;;
25972;SDS011;13765;51.166;4.466;2022-08-19T09:52:40;19.35;;;4.78;;
25972;SDS011;13765;51.166;4.466;2022-08-19T09:55:08;17.05;;;5.28;;
25972;SDS011;13765;51.166;4.466;2022-08-19T09:57:39;18.92;;;5.97;;
25972;SDS011;13765;51.166;4.466;2022-08-19T10:00:08;20.33;;;6.43;;
25972;SDS011;13765;51.166;4.466;2022-08-19T10:02:35;17.65;;;6.13;;
25972;SDS011;13765;51.166;4.466;2022-08-19T10:05:04;18.85;;;6.15;;
25972;SDS011;13765;51.166;4.466;2022-08-19T10:07:48;18.75;;;5.35;;
25972;SDS011;13765;51.166;4.466;2022-08-19T10:10:15;16.55;;;5.00;;
25972;SDS011;13765;51.166;4.466;2022-08-19T10:12:41;14.20;;;4.40;;
25972;SDS011;13765;51.166;4.466;2022-08-19T10:15:12;19.73;;;5.63;;
25972;SDS011;13765;51.166;4.466;2022-08-19T10:17:38;15.88;;;5.50;;
25972;SDS011;13765;51.166;4.466;2022-08-19T10:20:09;16.67;;;5.32;;
25972;SDS011;13765;51.166;4.466;2022-08-19T10:22:38;18.95;;;6.03;;
25972;SDS011;13765;51.166;4.466;2022-08-19T10:25:07;17.88;;;6.00;;
25972;SDS011;13765;51.166;4.466;2022-08-19T10:27:36;20.75;;;6.07;;
25972;SDS011;13765;51.166;4.466;2022-08-19T10:30:03;16.90;;;5.10;;
25972;SDS011;13765;51.166;4.466;2022-08-19T10:32:29;22.35;;;6.20;;
25972;SDS011;13765;51.166;4.466;2022-08-19T10:34:55;18.25;;;6.03;;
25972;SDS011;13765;51.166;4.466;2022-08-19T10:37:21;19.35;;;5.40;;
25972;SDS011;13765;51.166;4.466;2022-08-19T10:39:51;18.00;;;6.05;;
25972;SDS011;13765;51.166;4.466;2022-08-19T10:42:17;17.48;;;5.57;;
25972;SDS011;13765;51.166;4.466;2022-08-19T10:44:44;19.08;;;5.55;;
25972;SDS011;13765;51.166;4.466;2022-08-19T10:47:12;20.73;;;5.75;;
25972;SDS011;13765;51.166;4.466;2022-08-19T10:49:39;14.43;;;5.18;;
25972;SDS011;13765;51.166;4.466;2022-08-19T10:52:24;17.65;;;4.85;;
25972;SDS011;13765;51.166;4.466;2022-08-19T10:55:02;16.17;;;5.47;;
25972;SDS011;13765;51.166;4.466;2022-08-19T10:57:48;18.13;;;5.45;;
25972;SDS011;13765;51.166;4.466;2022-08-19T11:00:14;16.13;;;4.93;;
25972;SDS011;13765;51.166;4.466;2022-08-19T11:02:41;19.83;;;5.65;;
25972;SDS011;13765;51.166;4.466;2022-08-19T11:05:09;19.25;;;6.03;;
25972;SDS011;13765;51.166;4.466;2022-08-19T11:07:36;19.20;;;5.50;;
25972;SDS011;13765;51.166;4.466;2022-08-19T11:10:09;17.30;;;5.57;;
25972;SDS011;13765;51.166;4.466;2022-08-19T11:12:39;20.63;;;5.22;;
25972;SDS011;13765;51.166;4.466;2022-08-19T11:15:06;17.00;;;5.30;;
25972;SDS011;13765;51.166;4.466;2022-08-19T11:17:36;18.08;;;5.97;;
25972;SDS011;13765;51.166;4.466;2022-08-19T11:20:09;20.90;;;5.82;;
25972;SDS011;13765;51.166;4.466;2022-08-19T11:22:37;18.13;;;5.70;;
25972;SDS011;13765;51.166;4.466;2022-08-19T11:25:03;18.58;;;5.50;;
25972;SDS011;13765;51.166;4.466;2022-08-19T11:27:29;17.60;;;5.25;;
25972;SDS011;13765;51.166;4.466;2022-08-19T11:29:55;13.82;;;5.03;;
25972;SDS011;13765;51.166;4.466;2022-08-19T11:32:23;19.52;;;5.30;;
25972;SDS011;13765;51.166;4.466;2022-08-19T11:34:49;15.27;;;4.93;;
25972;SDS011;13765;51.166;4.466;2022-08-19T11:37:15;17.13;;;4.70;;
25972;SDS011;13765;51.166;4.466;2022-08-19T11:39:43;14.70;;;3.90;;
25972;SDS011;13765;51.166;4.466;2022-08-19T11:42:09;11.68;;;3.22;;
25972;SDS011;13765;51.166;4.466;2022-08-19T11:44:53;13.55;;;3.92;;
25972;SDS011;13765;51.166;4.466;2022-08-19T11:47:19;14.43;;;4.60;;
25972;SDS011;13765;51.166;4.466;2022-08-19T11:49:48;12.77;;;4.43;;
25972;SDS011;13765;51.166;4.466;2022-08-19T11:52:14;12.65;;;4.25;;
25972;SDS011;13765;51.166;4.466;2022-08-19T11:54:40;13.82;;;4.75;;
25972;SDS011;13765;51.166;4.466;2022-08-19T11:57:06;10.23;;;4.05;;
25972;SDS011;13765;51.166;4.466;2022-08-19T11:59:34;11.95;;;4.05;;
25972;SDS011;13765;51.166;4.466;2022-08-19T12:02:00;19.08;;;5.35;;
25972;SDS011;13765;51.166;4.466;2022-08-19T12:04:28;11.82;;;3.35;;
25972;SDS011;13765;51.166;4.466;2022-08-19T12:06:54;9.68;;;3.35;;
25972;SDS011;13765;51.166;4.466;2022-08-19T12:09:20;12.68;;;4.22;;
25972;SDS011;13765;51.166;4.466;2022-08-19T12:11:47;11.25;;;3.38;;
25972;SDS011;13765;51.166;4.466;2022-08-19T12:14:13;10.30;;;3.00;;
25972;SDS011;13765;51.166;4.466;2022-08-19T12:16:43;12.60;;;3.70;;
25972;SDS011;13765;51.166;4.466;2022-08-19T12:19:13;11.70;;;3.58;;
25972;SDS011;13765;51.166;4.466;2022-08-19T12:21:39;11.02;;;3.47;;
25972;SDS011;13765;51.166;4.466;2022-08-19T12:24:05;7.78;;;2.83;;
25972;SDS011;13765;51.166;4.466;2022-08-19T12:26:32;6.85;;;2.20;;
25972;SDS011;13765;51.166;4.466;2022-08-19T12:28:58;6.28;;;2.40;;
25972;SDS011;13765;51.166;4.466;2022-08-19T12:31:24;6.93;;;2.28;;
25972;SDS011;13765;51.166;4.466;2022-08-19T12:33:52;6.18;;;2.78;;
25972;SDS011;13765;51.166;4.466;2022-08-19T12:36:18;11.02;;;3.20;;
25972;SDS011;13765;51.166;4.466;2022-08-19T12:38:44;5.03;;;1.92;;
25972;SDS011;13765;51.166;4.466;2022-08-19T12:41:13;5.78;;;2.13;;
25972;SDS011;13765;51.166;4.466;2022-08-19T12:43:42;7.47;;;2.43;;
25972;SDS011;13765;51.166;4.466;2022-08-19T12:46:08;4.18;;;1.88;;
25972;SDS011;13765;51.166;4.466;2022-08-19T12:48:37;7.18;;;2.25;;
25972;SDS011;13765;51.166;4.466;2022-08-19T12:51:07;6.60;;;2.20;;
25972;SDS011;13765;51.166;4.466;2022-08-19T12:53:38;7.90;;;2.22;;
25972;SDS011;13765;51.166;4.466;2022-08-19T12:56:04;6.93;;;2.42;;
25972;SDS011;13765;51.166;4.466;2022-08-19T12:58:34;3.85;;;1.83;;
25972;SDS011;13765;51.166;4.466;2022-08-19T13:01:05;8.32;;;2.03;;
25972;SDS011;13765;51.166;4.466;2022-08-19T13:03:32;4.38;;;1.80;;
25972;SDS011;13765;51.166;4.466;2022-08-19T13:05:58;8.52;;;2.05;;
25972;SDS011;13765;51.166;4.466;2022-08-19T13:08:27;6.97;;;1.80;;
25972;SDS011;13765;51.166;4.466;2022-08-19T13:10:52;6.40;;;1.88;;
25972;SDS011;13765;51.166;4.466;2022-08-19T13:13:18;4.82;;;1.70;;
25972;SDS011;13765;51.166;4.466;2022-08-19T13:15:44;6.60;;;2.08;;
25972;SDS011;13765;51.166;4.466;2022-08-19T13:18:10;9.32;;;2.33;;
25972;SDS011;13765;51.166;4.466;2022-08-19T13:20:37;4.13;;;2.25;;
25972;SDS011;13765;51.166;4.466;2022-08-19T13:23:05;4.82;;;2.30;;
25972;SDS011;13765;51.166;4.466;2022-08-19T13:25:35;3.92;;;1.73;;
25972;SDS011;13765;51.166;4.466;2022-08-19T13:28:01;6.32;;;1.55;;
25972;SDS011;13765;51.166;4.466;2022-08-19T13:30:31;4.07;;;1.67;;
25972;SDS011;13765;51.166;4.466;2022-08-19T13:33:16;3.88;;;1.73;;
25972;SDS011;13765;51.166;4.466;2022-08-19T13:35:48;7.13;;;1.80;;
25972;SDS011;13765;51.166;4.466;2022-08-19T13:38:22;6.40;;;2.17;;
25972;SDS011;13765;51.166;4.466;2022-08-19T13:40:51;4.53;;;1.70;;
25972;SDS011;13765;51.166;4.466;2022-08-19T13:43:20;4.85;;;1.60;;
25972;SDS011;13765;51.166;4.466;2022-08-19T13:45:51;5.03;;;1.58;;
25972;SDS011;13765;51.166;4.466;2022-08-19T13:48:24;6.60;;;2.33;;
25972;SDS011;13765;51.166;4.466;2022-08-19T13:50:51;7.40;;;1.92;;
25972;SDS011;13765;51.166;4.466;2022-08-19T13:53:17;5.95;;;2.72;;
25972;SDS011;13765;51.166;4.466;2022-08-19T13:55:45;2.90;;;1.50;;
25972;SDS011;13765;51.166;4.466;2022-08-19T13:58:17;4.95;;;1.95;;
25972;SDS011;13765;51.166;4.466;2022-08-19T14:00:46;5.50;;;2.15;;
25972;SDS011;13765;51.166;4.466;2022-08-19T14:03:12;5.85;;;2.17;;
25972;SDS011;13765;51.166;4.466;2022-08-19T14:05:38;6.50;;;2.60;;
25972;SDS011;13765;51.166;4.466;2022-08-19T14:08:04;6.55;;;2.50;;
25972;SDS011;13765;51.166;4.466;2022-08-19T14:10:30;8.05;;;2.83;;
25972;SDS011;13765;51.166;4.466;2022-08-19T14:13:00;7.10;;;2.97;;
25972;SDS011;13765;51.166;4.466;2022-08-19T14:15:29;9.15;;;3.15;;
25972;SDS011;13765;51.166;4.466;2022-08-19T14:17:56;8.45;;;3.03;;
25972;SDS011;13765;51.166;4.466;2022-08-19T14:20:24;8.02;;;2.72;;
25972;SDS011;13765;51.166;4.466;2022-08-19T14:22:51;8.20;;;2.65;;
25972;SDS011;13765;51.166;4.466;2022-08-19T14:25:18;9.52;;;2.88;;
25972;SDS011;13765;51.166;4.466;2022-08-19T14:27:47;6.10;;;2.28;;
25972;SDS011;13765;51.166;4.466;2022-08-19T14:30:15;7.15;;;2.65;;
25972;SDS011;13765;51.166;4.466;2022-08-19T14:32:45;4.38;;;1.88;;
25972;SDS011;13765;51.166;4.466;2022-08-19T14:35:12;8.93;;;3.30;;
25972;SDS011;13765;51.166;4.466;2022-08-19T14:37:42;5.25;;;2.50;;
25972;SDS011;13765;51.166;4.466;2022-08-19T14:40:10;4.28;;;1.90;;
25972;SDS011;13765;51.166;4.466;2022-08-19T14:42:39;5.30;;;1.90;;
25972;SDS011;13765;51.166;4.466;2022-08-19T14:45:06;6.13;;;1.80;;
25972;SDS011;13765;51.166;4.466;2022-08-19T14:47:33;3.75;;;1.90;;
25972;SDS011;13765;51.166;4.466;2022-08-19T14:49:59;5.13;;;1.90;;
25972;SDS011;13765;51.166;4.466;2022-08-19T14:52:24;3.15;;;1.55;;
25972;SDS011;13765;51.166;4.466;2022-08-19T14:54:50;1.55;;;0.98;;
25972;SDS011;13765;51.166;4.466;2022-08-19T14:57:19;4.22;;;0.70;;